Tiempo atmosférico en la estación meteorológica de Plasencia, Cáceres (420 m.)



Fecha
DESCASC
Temp. máxima en grados centígrados (hora)
DESCASC
Temp. mínima en grados centígrados (hora)
DESCASC
Temp. media en grados centígrados
DESCASC
Racha de viento máxima en m/sg (hora)
DESCASC
Velocidad máxima media en intervalos de 10 minutos(hora)
DESCASC
Precipitaciones diarias en mm
DESCASC
Precipitaciones de 00:00 a 06:00 en mm
DESCASC
Precipitaciones de 06:00 a 12:00 en mm
DESCASC
Precipitaciones de 12:00 a 18:00 en mm
DESCASC
Precipitaciones de 18:00 a 24:00 en mm
DESCASC
29-03-2020 19.9 (16:10) 6.5 (09:00) 13.2 6.11 (17:50) 2.5 (17:50) 0 0 0 0 0
28-03-2020 18.5 (17:30) 5.8 (05:00) 12.2 8.89 (10:40) 3.61 (01:50) 0 0 0 0 0
27-03-2020 14.6 (14:40) 5.2 (07:40) 9.9 12.22 (15:10) 4.72 (14:00) 0 0 0 0 0
26-03-2020 21 (17:00) 9.9 (00:00) 15.4 8.33 (13:40) 3.61 (15:50) 0 0 0 0 0
25-03-2020 20.2 (16:10) 10.6 (00:00) 15.4 7.5 (19:00) 3.61 (18:00) 0 0 0 0 0
24-03-2020 19.7 (15:40) 11.2 (00:00) 15.5 12.5 (11:30) 4.44 (13:20) 0 0 0 0 0
23-03-2020 16.9 (14:00) 7.9 (00:00) 12.4 10.28 (21:10) 3.61 (21:00) 4.4 0 0 4.4 0
22-03-2020 16.7 (14:00) 5.4 (07:30) 11.1 7.78 (17:50) 2.78 (17:50) 1 0 0 0.2 0.8
21-03-2020 15.7 (17:50) 7.6 (00:00) 11.6 11.39 (00:10) 4.17 (01:00) 28.2 17.2 11 0 0
20-03-2020 15.1 (00:00) 10.2 (00:00) 12.7 11.11 (23:10) 4.17 (23:10) 9.1 0 4.7 0.2 4.2
19-03-2020 17.1 (15:10) 10.3 (00:00) 13.7 11.39 (01:10) 4.44 (01:10) 0 0 0 0 0
18-03-2020 18.6 (16:20) 11.8 (00:00) 15.2 12.5 (08:50) 4.72 (10:00) 0 0 0 0 0
17-03-2020 17.6 (18:00) 3.3 (00:00) 10.5 10.83 (12:50) 3.89 (12:50) 0 0 0 0 0
16-03-2020 8.1 (11:40) 4.9 (00:00) 6.5 15.83 (11:40) 6.11 (13:10) 6.3 0 1.3 4.2 0.8
15-03-2020 21.9 (14:30) 7.6 (00:00) 14.7 11.67 (17:40) 5.83 (17:50) 0 0 0 0 0
14-03-2020 24.3 (17:20) 10.9 (00:00) 17.6 10.28 (00:10) 4.17 (01:10) 0 0 0 0 0
13-03-2020 22.9 (16:50) 10.3 (06:40) 16.6 9.17 (20:20) 3.61 (20:20) 0 0 0 0 0
12-03-2020 25.8 (16:40) 15.4 (00:00) 20.6 7.5 (08:20) 3.06 (09:20) 0 0 0 0 0
11-03-2020 26.2 (16:00) 10.4 (00:00) 18.3 5.56 (10:50) 1.94 (06:10) 0 0 0 0 0
10-03-2020 23.9 (16:50) 8.9 (00:00) 16.4 6.67 (00:50) 2.5 (00:50) 0 0 0 0 0
09-03-2020 20.4 (15:30) 8.3 (00:00) 14.3 11.11 (07:50) 4.72 (22:50) 0 0 0 0 0
08-03-2020 16.1 (17:40) 4.7 (00:00) 10.4 6.39 (17:10) 3.06 (14:40) 0 0 0 0 0
07-03-2020 18.8 (16:40) 7.5 (00:00) 13.1 10.28 (06:50) 3.89 (02:50) 0 0 0 0 0
06-03-2020 15.9 (16:00) 6.5 (00:00) 11.2 12.5 (12:30) 4.17 (14:00) 0.4 0.4 0 0 0
05-03-2020 17.4 (16:00) 8.5 (00:00) 12.9 13.61 (15:40) 5.83 (16:30) 0.5 0 0.5 0 0
04-03-2020 17.1 (16:00) 11.6 (00:00) 14.4 7.78 (04:50) 3.33 (04:40) 0 0 0 0 0
03-03-2020 12.7 (23:10) 5.8 (00:00) 9.3 5.28 (23:20) 2.22 (23:30) 0.4 0 0.2 0.2 0
02-03-2020 14.6 (15:40) 7.3 (00:00) 11 16.94 (13:30) 7.78 (03:00) 2.1 2.1 0 0 0
01-03-2020 17.8 (16:20) 9.7 (00:00) 13.7 15.83 (23:50) 7.22 (23:50) 7.1 0 2.9 0.3 3.9
29-02-2020 16.5 (14:30) 8.3 (00:00) 12.4 11.67 (15:30) 5.28 (15:40) 2 0 1.9 0.1 0

Gráficas

Temp. máximas Temp. mínimas Temp. medias Precipitaciones Rachas de viento máximas Velocidades máximas media en intervalos de 10 minutos

Datos horarios

Fecha y hora oficial Temperatura (ºC) Velocidad del viento (km/h) Dirección del viento Racha (km/h) Dirección de racha Precipitación (mm) Presión (hPa) Tendencia (hPa) Humedad (%)
2020-03-29 23:00:00 14 3 Noroeste 8 Noroeste 0 -- -- 55
2020-03-29 22:00:00 14.4 0 Calma 5 Oeste 0 -- -- 52
2020-03-29 21:00:00 15.9 3 Oeste 10 Oeste 0 -- -- 49
2020-03-29 20:00:00 17.6 5 Oeste 19 Noroeste 0 -- -- 45
2020-03-29 19:00:00 19.3 5 Oeste 19 Oeste 0 -- -- 45
2020-03-29 18:00:00 18.6 6 Oeste 22 Oeste 0 -- -- 42
2020-03-29 17:00:00 19.3 3 Oeste 19 Oeste 0 -- -- 42
2020-03-29 16:00:00 19.7 4 Noroeste 18 Oeste 0 -- -- 42
2020-03-29 15:00:00 19.4 5 Oeste 15 Oeste 0 -- -- 42
2020-03-29 14:00:00 18.3 5 Oeste 14 Sudoeste 0 -- -- 45
2020-03-29 13:00:00 17.2 2 Sur 11 Oeste 0 -- -- 51
2020-03-29 12:00:00 14.6 4 Oeste 9 Oeste 0 -- -- 55
2020-03-29 11:00:00 11.8 0 Calma 9 Este 0 -- -- 62
2020-03-29 10:00:00 9.1 5 Este 11 Este 0 -- -- 69
2020-03-29 09:00:00 6.7 5 Este 13 Este 0 -- -- 74
2020-03-29 08:00:00 7.2 5 Este 14 Este 0 -- -- 72
2020-03-29 07:00:00 7.5 4 Nordeste 13 Este 0 -- -- 68
2020-03-29 06:00:00 7 3 Este 17 Nordeste 0 -- -- 71
2020-03-29 05:00:00 7.2 5 Este 15 Este 0 -- -- 73
2020-03-29 03:00:00 8.8 5 Este 8 Sudeste 0 -- -- 64
2020-03-29 01:00:00 9.5 4 Este 11 Este 0 -- -- 61
2020-03-29 00:00:00 10.1 5 Este 10 Este 0 -- -- 59
2020-03-28 23:00:00 10.8 4 Este 9 Sudeste 0 -- -- 55
2020-03-28 22:00:00 11.7 2 Este 6 Este 0 -- -- 51
2020-03-28 21:00:00 12.2 3 Este 9 Este 0 -- -- 50
2020-03-28 20:00:00 13.6 0 Calma 6 Sudeste 0 -- -- 52
2020-03-28 19:00:00 15.9 2 Sudeste 18 Sudeste 0 -- -- 47
2020-03-28 18:00:00 17.7 5 Sudeste 19 Sudeste 0 -- -- 40
2020-03-28 17:00:00 18.2 4 Sudeste 20 Este 0 -- -- 39
2020-03-28 16:00:00 17.6 7 Sudeste 31 Este 0 -- -- 42
2020-03-28 15:00:00 17.4 8 Sudeste 30 Este 0 -- -- 42
2020-03-28 14:00:00 16.8 7 Sudeste 27 Sudeste 0 -- -- 49
2020-03-28 13:00:00 15.7 10 Sudeste 30 Este 0 -- -- 55
2020-03-28 12:00:00 13.2 13 Sudeste 31 Sudeste 0 -- -- 59
2020-03-28 11:00:00 11.5 7 Sudeste 32 Este 0 -- -- 62
2020-03-28 10:00:00 9.3 6 Sudeste 22 Este 0 -- -- 71
2020-03-28 09:00:00 7.3 3 Sudeste 17 Sudeste 0 -- -- 74
2020-03-28 08:00:00 6.2 3 Sudeste 13 Este 0 -- -- 74
2020-03-28 07:00:00 6.2 0 Calma 22 Nordeste 0 -- -- 73
2020-03-28 06:00:00 6.1 0 Calma 11 Este 0 -- -- 72
2020-03-28 05:00:00 6 4 Este 10 Este 0 -- -- 73
2020-03-28 04:00:00 6.3 2 Este 9 Nordeste 0 -- -- 72
2020-03-28 03:00:00 7.6 3 Este 31 Sudeste 0 -- -- 68
2020-03-28 02:00:00 8.3 13 Este 29 Este 0 -- -- 67
2020-03-28 01:00:00 8.3 9 Este 27 Este 0 -- -- 65
2020-03-28 00:00:00 8.1 7 Este 21 Este 0 -- -- 64
2020-03-27 23:00:00 7.8 3 Sudeste 11 Este 0 -- -- 62
2020-03-27 22:00:00 8.3 0 Calma 14 Este 0 -- -- 60
2020-03-27 21:00:00 9.5 4 Sudeste 17 Sudeste 0 -- -- 59
2020-03-27 20:00:00 10.7 6 Sudeste 24 Sudeste 0 -- -- 55
2020-03-27 19:00:00 12.2 9 Sudeste 26 Este 0 -- -- 52
2020-03-27 18:00:00 13.7 8 Sudeste 32 Este 0 -- -- 49
2020-03-27 17:00:00 13.7 8 Sudeste 32 Este 0 -- -- 50
2020-03-27 16:00:00 13.4 14 Este 44 Sudeste 0 -- -- 52
2020-03-27 15:00:00 13.2 15 Este 42 Este 0 -- -- 52
2020-03-27 14:00:00 13.3 17 Este 41 Sudeste 0 -- -- 54
2020-03-27 13:00:00 12.5 9 Sudeste 36 Este 0 -- -- 55
2020-03-27 12:00:00 12.6 10 Sudeste 40 Sudeste 0 -- -- 55
2020-03-27 11:00:00 11.3 13 Sudeste 37 Sudeste 0 -- -- 57
2020-03-27 10:00:00 10.3 10 Sudeste 32 Este 0 -- -- 59
2020-03-27 09:00:00 7.3 2 Sudeste 10 Sudeste 0 -- -- 70
2020-03-27 08:00:00 5.3 3 Sudoeste 10 Este 0 -- -- 77
2020-03-27 07:00:00 5.7 0 Calma 8 Este 0 -- -- 76
2020-03-27 06:00:00 6 0 Calma 6 Sudeste 0 -- -- 75
2020-03-27 05:00:00 6.8 4 Oeste 7 Oeste 0 -- -- 71
2020-03-27 04:00:00 9.3 2 Sudoeste 15 Este 0 -- -- 61
2020-03-27 03:00:00 10.4 4 Este 11 Nordeste 0 -- -- 53
2020-03-27 02:00:00 10.2 0 Calma 10 Sudeste 0 -- -- 62
2020-03-27 01:00:00 11.8 0 Calma 10 Este 0 -- -- 53
2020-03-27 00:00:00 12.1 5 Este 13 Este 0 -- -- 55
2020-03-26 23:00:00 12.2 0 Calma 14 Noroeste 0 -- -- 50
2020-03-26 22:00:00 13.8 5 Nordeste 14 Norte 0 -- -- 45
2020-03-26 21:00:00 15.8 6 Nordeste 15 Norte 0 -- -- 36
2020-03-26 20:00:00 16.5 4 Norte 14 Norte 0 -- -- 35
2020-03-26 19:00:00 18.6 6 Noroeste 21 Noroeste 0 -- -- 32
2020-03-26 18:00:00 20.4 9 Noroeste 24 Noroeste 0 -- -- 34
2020-03-26 17:00:00 20.9 5 Noroeste 21 Oeste 0 -- -- 36
2020-03-26 16:00:00 20.4 10 Noroeste 30 Noroeste 0 -- -- 36
2020-03-26 15:00:00 19.8 8 Noroeste 29 Noroeste 0 -- -- 41
2020-03-26 14:00:00 19.3 8 Noroeste 30 Noroeste 0 -- -- 42
2020-03-26 13:00:00 18.2 5 Noroeste 28 Oeste 0 -- -- 39
2020-03-26 12:00:00 16.8 6 Norte 29 Noroeste 0 -- -- 42
2020-03-26 11:00:00 15.6 6 Noroeste 25 Norte 0 -- -- 53
2020-03-26 10:00:00 12.7 6 Noroeste 25 Norte 0 -- -- 64
2020-03-26 09:00:00 10.7 10 Nordeste 25 Norte 0 -- -- 62
2020-03-26 08:00:00 10.3 10 Norte 29 Norte 0 -- -- 64
2020-03-26 07:00:00 10.6 8 Norte 26 Norte 0 -- -- 63
2020-03-26 06:00:00 10.2 2 Norte 15 Norte 0 -- -- 67
2020-03-26 05:00:00 11 2 Noroeste 19 Sudoeste 0 -- -- 68
2020-03-26 04:00:00 12.4 9 Noroeste 29 Norte 0 -- -- 63
2020-03-26 03:00:00 12.6 6 Noroeste 26 Noroeste 0 -- -- 68
2020-03-26 02:00:00 12.8 3 Oeste 29 Noroeste 0 -- -- 68
2020-03-26 01:00:00 12.4 5 Noroeste 24 Norte 0 -- -- 73
2020-03-26 00:00:00 12.6 6 Noroeste 15 Noroeste 0 -- -- 75
2020-03-25 23:00:00 13.3 3 Oeste 10 Este 0 -- -- 68
2020-03-25 22:00:00 15.1 0 Calma 26 Oeste 0 -- -- 63
2020-03-25 21:00:00 15.7 9 Oeste 22 Oeste 0 -- -- 63
2020-03-25 20:00:00 16.4 8 Oeste 24 Oeste 0 -- -- 59
2020-03-25 19:00:00 18.2 12 Oeste 27 Oeste 0 -- -- 55
2020-03-25 18:00:00 19.7 13 Oeste 27 Sudoeste 0 -- -- 53
2020-03-25 17:00:00 18.1 8 Oeste 23 Sudoeste 0 -- -- 59
2020-03-25 16:00:00 19.9 9 Oeste 24 Sudoeste 0 -- -- 55
2020-03-25 15:00:00 19.1 6 Noroeste 21 Oeste 0 -- -- 56
2020-03-25 14:00:00 18.2 5 Noroeste 20 Noroeste 0 -- -- 59
2020-03-25 13:00:00 17.1 9 Oeste 22 Oeste 0 -- -- 62
2020-03-25 12:00:00 16.3 8 Noroeste 19 Sudoeste 0 -- -- 62
2020-03-25 11:00:00 14.2 5 Noroeste 13 Noroeste 0 -- -- 68
2020-03-25 10:00:00 12.3 0 Calma 12 Este 0 -- -- 67
2020-03-25 09:00:00 11.2 5 Este 13 Este 0 -- -- 71
2020-03-25 08:00:00 10.9 5 Este 21 Este 0 -- -- 71
2020-03-25 07:00:00 11.2 3 Este 22 Este 0 -- -- 71
2020-03-25 06:00:00 11.2 3 Este 17 Este 0 -- -- 71
2020-03-25 05:00:00 11.4 6 Sudeste 21 Sudeste 0 -- -- 70
2020-03-25 04:00:00 11.2 6 Este 23 Este 0 -- -- 72
2020-03-25 03:00:00 11.3 5 Este 17 Sudeste 0 -- -- 72
2020-03-25 02:00:00 11.7 8 Este 18 Este 0 -- -- 70
2020-03-25 01:00:00 11.9 6 Este 17 Este 0 -- -- 70
2020-03-25 00:00:00 12.2 4 Este 15 Sudeste 0 -- -- 67
2020-03-24 23:00:00 13.1 4 Este 13 Este 0 -- -- 63
2020-03-24 22:00:00 13.6 5 Este 17 Sudeste 0 -- -- 61
2020-03-24 21:00:00 14.6 3 Sudeste 24 Sudeste 0 -- -- 58
2020-03-24 20:00:00 15.9 6 Sudeste 29 Sudeste 0 -- -- 54
2020-03-24 19:00:00 17.1 11 Sudeste 31 Sudeste 0 -- -- 51
2020-03-24 18:00:00 18.5 8 Sudeste 31 Este 0 -- -- 49
2020-03-24 17:00:00 18.9 8 Sudeste 42 Este 0 -- -- 47
2020-03-24 16:00:00 18.4 8 Sudeste 30 Este 0 -- -- 49
2020-03-24 15:00:00 18.5 10 Sudeste 36 Sudeste 0 -- -- 48
2020-03-24 14:00:00 18.4 12 Sudeste 40 Este 0 -- -- 49
2020-03-24 13:00:00 17.8 9 Sudeste 43 Este 0 -- -- 50
2020-03-24 12:00:00 15.8 11 Este 45 Sudeste 0 -- -- 54
2020-03-24 11:00:00 16.2 12 Este 38 Este 0 -- -- 55
2020-03-24 10:00:00 13.8 8 Este 31 Este 0 -- -- 62
2020-03-24 09:00:00 12.6 4 Este 34 Sudeste 0 -- -- 65
2020-03-24 08:00:00 12.7 7 Este 33 Este 0 -- -- 62
2020-03-24 07:00:00 12.6 6 Este 28 Este 0 -- -- 62
2020-03-24 06:00:00 13.1 10 Este 36 Este 0 -- -- 62
2020-03-24 05:00:00 12.6 10 Este 32 Este 0 -- -- 65
2020-03-24 04:00:00 12.9 12 Este 35 Este 0 -- -- 65
2020-03-24 03:00:00 12.5 11 Este 27 Sudeste 0 -- -- 67
2020-03-24 02:00:00 12.6 7 Este 24 Este 0 -- -- 67
2020-03-24 01:00:00 12.4 10 Este 27 Sudeste 0 -- -- 68
2020-03-24 00:00:00 11.5 3 Sudeste 15 Sudeste 0 -- -- 71
2020-03-23 23:00:00 12.2 6 Este 20 Este 0 -- -- 67
2020-03-23 22:00:00 12 4 Este 37 Sudeste 0 -- -- 68
2020-03-23 21:00:00 13.2 13 Sudeste 35 Este 0 -- -- 62
2020-03-23 20:00:00 12.7 2 Este 15 Este 0 -- -- 62
2020-03-23 19:00:00 15.7 4 Sudeste 29 Sudeste 0 -- -- 52
2020-03-23 18:00:00 16.3 7 Este 25 Sudeste 0 -- -- 53
2020-03-23 17:00:00 14.7 0 Calma 17 Este 0 -- -- 74
2020-03-23 16:00:00 12.9 7 Este 26 Sudeste 1.4 -- -- 82
2020-03-23 15:00:00 12.2 10 Este 28 Este 2.9 -- -- 74
2020-03-23 14:00:00 16.9 8 Sudeste 28 Sudeste 0.1 -- -- 57
2020-03-23 13:00:00 15.9 8 Sudeste 23 Este 0 -- -- 58
2020-03-23 12:00:00 15.7 7 Sudeste 32 Sudeste 0 -- -- 63
2020-03-23 11:00:00 13.1 12 Este 30 Sudeste 0 -- -- 69
2020-03-23 10:00:00 12.3 7 Este 24 Sudeste 0 -- -- 73
2020-03-23 09:00:00 10.3 5 Este 15 Nordeste 0 -- -- 82
2020-03-23 08:00:00 8.9 4 Este 12 Sudeste 0 -- -- 87
2020-03-23 07:00:00 8.2 0 Calma 12 Este 0 -- -- 89
2020-03-23 06:00:00 8.7 3 Este 14 Este 0 -- -- 87
2020-03-23 05:00:00 10 6 Este 19 Sudeste 0 -- -- 84
2020-03-23 04:00:00 9.7 6 Este 17 Sudeste 0 -- -- 87
2020-03-23 03:00:00 9.4 5 Este 16 Este 0 -- -- 91
2020-03-23 02:00:00 9.1 3 Este 10 Este 0 -- -- 91
2020-03-23 01:00:00 9.8 4 Este 8 Nordeste 0 -- -- 91
2020-03-23 00:00:00 10.2 0 Calma 9 Este 0 -- -- 91
2020-03-22 23:00:00 10.6 3 Nordeste 11 Noroeste 0 -- -- 90
2020-03-22 22:00:00 10.7 0 Calma 8 Este 0 -- -- 90
2020-03-22 21:00:00 10.9 3 Este 12 Este 0.2 -- -- 91
2020-03-22 20:00:00 10.9 4 Este 13 Nordeste 0 -- -- 90
2020-03-22 19:00:00 11.1 3 Este 22 Este 0.6 -- -- 89
2020-03-22 18:00:00 11.9 10 Este 28 Este 0.2 -- -- 81
2020-03-22 17:00:00 16.2 3 Oeste 11 Noroeste 0 -- -- 54
2020-03-22 16:00:00 16 0 Calma 17 Noroeste 0 -- -- 55
2020-03-22 15:00:00 16 3 Oeste 12 Noroeste 0 -- -- 56
2020-03-22 14:00:00 16.7 4 Oeste 15 Oeste 0 -- -- 57
2020-03-22 13:00:00 13.6 4 Sudoeste 10 Oeste 0 -- -- 63
2020-03-22 12:00:00 13.6 3 Sur 9 Oeste 0 -- -- 65
2020-03-22 11:00:00 11.7 0 Calma 18 Sudeste 0 -- -- 73
2020-03-22 10:00:00 10.2 5 Sudeste 17 Sudeste 0 -- -- 76
2020-03-22 09:00:00 8.1 5 Este 14 Este 0 -- -- 85
2020-03-22 08:00:00 6.5 4 Este 10 Este 0 -- -- 84
2020-03-22 07:00:00 5.9 2 Sudeste 11 Este 0 -- -- 86
2020-03-22 06:00:00 6.4 4 Este 10 Este 0 -- -- 84
2020-03-22 05:00:00 6.7 0 Calma 13 Este 0 -- -- 83
2020-03-22 04:00:00 7 4 Este 8 Este 0 -- -- 84
2020-03-22 03:00:00 7.8 0 Calma 9 Nordeste 0 -- -- 76
2020-03-22 02:00:00 7.6 3 Este 17 Este 0 -- -- 82
2020-03-22 01:00:00 8.7 4 Este 9 Este 0 -- -- 76
2020-03-22 00:00:00 8.8 3 Este 10 Este 0 -- -- 76
2020-03-21 23:00:00 9.7 0 Calma 11 Este 0 -- -- 74
2020-03-21 22:00:00 10.4 4 Este 16 Este 0 -- -- 69
2020-03-21 21:00:00 10.4 3 Este 16 Sudeste 0 -- -- 72
2020-03-21 20:00:00 10.7 3 Este 16 Sudeste 0 -- -- 68
2020-03-21 19:00:00 13.3 3 Sudeste 15 Este 0 -- -- 58
2020-03-21 18:00:00 15.7 3 Sudeste 17 Sudeste 0 -- -- 53
2020-03-21 17:00:00 13.9 6 Este 20 Sudeste 0 -- -- 58
2020-03-21 16:00:00 14.2 3 Sudeste 26 Sudeste 0 -- -- 63
2020-03-21 15:00:00 12.1 6 Este 22 Este 0 -- -- 72
2020-03-21 14:00:00 10.3 5 Este 21 Sudeste 0 -- -- 81
2020-03-21 13:00:00 9.9 6 Sudeste 24 Este 0 -- -- 89
2020-03-21 12:00:00 9.1 5 Este 18 Sudeste 0.4 -- -- 94
2020-03-21 11:00:00 8.1 5 Este 17 Este 1.1 -- -- 97
2020-03-21 10:00:00 7.7 3 Este 14 Este 1.5 -- -- 97
2020-03-21 09:00:00 7.9 0 Calma 11 Este 2.2 -- -- 97
2020-03-21 08:00:00 7.8 0 Calma 14 Noroeste 5.4 -- -- 97
2020-03-21 07:00:00 8.9 0 Calma 14 Este 0.4 -- -- 97
2020-03-21 06:00:00 9.2 0 Calma 9 Oeste 3.8 -- -- 98
2020-03-21 05:00:00 9 2 Oeste 9 Oeste 1.9 -- -- 97
2020-03-21 04:00:00 9.3 0 Calma 9 Este 1.9 -- -- 97
2020-03-21 03:00:00 9.5 2 Nordeste 14 Sur 6.4 -- -- 95
2020-03-21 02:00:00 10.2 4 Sur 31 Sudeste 3.2 -- -- 91
2020-03-21 01:00:00 12 15 Sudeste 41 Sudeste 0 -- -- 76
2020-03-21 00:00:00 12.2 12 Sudeste 40 Sudeste 0 -- -- 76
2020-03-20 23:00:00 11.9 13 Este 32 Sudeste 0 -- -- 82
2020-03-20 22:00:00 11.4 9 Sudeste 26 Este 0.4 -- -- 92
2020-03-20 21:00:00 11.3 9 Sudeste 31 Sudeste 0.1 -- -- 94
2020-03-20 20:00:00 11.6 9 Sudeste 28 Sudeste 3.7 -- -- 91
2020-03-20 19:00:00 14 9 Sudeste 26 Este 0 -- -- 67
2020-03-20 18:00:00 14.1 9 Este 30 Este 0 -- -- 68
2020-03-20 17:00:00 14.3 9 Sudeste 32 Este 0 -- -- 70
2020-03-20 16:00:00 13.6 10 Este 34 Este 0 -- -- 72
2020-03-20 15:00:00 13.7 10 Este 31 Este 0 -- -- 76
2020-03-20 14:00:00 12 9 Sudeste 33 Este 0 -- -- 88
2020-03-20 13:00:00 11.2 8 Sudeste 27 Sudeste 0.2 -- -- 93
2020-03-20 12:00:00 10.9 9 Sudeste 35 Este 0.2 -- -- 94
2020-03-20 11:00:00 10.3 6 Sudeste 27 Sudeste 1.4 -- -- 94
2020-03-20 10:00:00 10.4 6 Este 39 Este 1.9 -- -- 94
2020-03-20 09:00:00 10.9 6 Sudeste 32 Este 1.2 -- -- 86
2020-03-20 08:00:00 11.8 10 Este 37 Sudeste 0 -- -- 79
2020-03-20 07:00:00 11.8 10 Este 34 Este 0 -- -- 76
2020-03-20 06:00:00 11.8 8 Sudeste 32 Sudeste 0 -- -- 76
2020-03-20 05:00:00 12.2 10 Sudeste 31 Este 0 -- -- 73
2020-03-20 04:00:00 12.4 8 Sudeste 31 Sudeste 0 -- -- 71
2020-03-20 03:00:00 12.8 8 Este 32 Este 0 -- -- 69
2020-03-20 02:00:00 13.4 11 Sudeste 39 Sudeste 0 -- -- 67
2020-03-20 01:00:00 14.1 9 Este 31 Este 0 -- -- 64
2020-03-20 00:00:00 15.1 8 Este 28 Este 0 -- -- 62
2020-03-19 23:00:00 14.2 5 Este 15 Este 0 -- -- 61
2020-03-19 22:00:00 15.4 5 Sudeste 20 Este 0 -- -- 59
2020-03-19 21:00:00 15.6 9 Este 22 Este 0 -- -- 59
2020-03-19 20:00:00 15.6 6 Este 22 Este 0 -- -- 59
2020-03-19 19:00:00 15.8 8 Este 29 Este 0 -- -- 59
2020-03-19 18:00:00 15.8 9 Sudeste 27 Este 0 -- -- 59
2020-03-19 17:00:00 16.3 6 Sudeste 31 Este 0 -- -- 58
2020-03-19 16:00:00 16.4 11 Sudeste 35 Sudeste 0 -- -- 55
2020-03-19 15:00:00 16.8 10 Sudeste 26 Este 0 -- -- 56
2020-03-19 14:00:00 16.4 9 Este 30 Sudeste 0 -- -- 56
2020-03-19 13:00:00 16.5 10 Sudeste 33 Este 0 -- -- 56
2020-03-19 12:00:00 15.8 9 Sudeste 31 Sudeste 0 -- -- 58
2020-03-19 11:00:00 13.7 11 Sudeste 31 Sudeste 0 -- -- 59
2020-03-19 10:00:00 11.9 8 Este 22 Este 0 -- -- 65
2020-03-19 09:00:00 10.6 7 Este 22 Este 0 -- -- 68
2020-03-19 08:00:00 10.5 6 Este 25 Sudeste 0 -- -- 68
2020-03-19 07:00:00 11.3 11 Sudeste 27 Sudeste 0 -- -- 65
2020-03-19 06:00:00 12.5 12 Sudeste 27 Sudeste 0 -- -- 59
2020-03-19 05:00:00 13.8 11 Este 29 Sudeste 0 -- -- 55
2020-03-19 04:00:00 15.1 10 Este 37 Este 0 -- -- 55
2020-03-19 03:00:00 15.6 15 Este 41 Este 0 -- -- 56
2020-03-19 02:00:00 15.7 15 Este 41 Sudeste 0 -- -- 58
2020-03-19 01:00:00 15.8 13 Este 38 Este 0 -- -- 62
2020-03-19 00:00:00 15.7 13 Este 40 Este 0 -- -- 62
2020-03-18 23:00:00 15.7 14 Este 37 Este 0 -- -- 61
2020-03-18 22:00:00 15.8 7 Este 25 Sudeste 0 -- -- 58
2020-03-18 21:00:00 15.9 6 Este 25 Este 0 -- -- 60
2020-03-18 20:00:00 15.8 10 Este 24 Sudeste 0 -- -- 61
2020-03-18 19:00:00 15.9 6 Este 28 Este 0 -- -- 60
2020-03-18 18:00:00 16.4 10 Este 29 Este 0 -- -- 59
2020-03-18 17:00:00 17.2 9 Sudeste 34 Este 0 -- -- 56
2020-03-18 16:00:00 17.9 12 Este 43 Sudeste 0 -- -- 55
2020-03-18 15:00:00 16.7 15 Sudeste 43 Sudeste 0 -- -- 56
2020-03-18 14:00:00 17.2 12 Sudeste 42 Este 0 -- -- 56
2020-03-18 13:00:00 17.1 14 Este 41 Este 0 -- -- 55
2020-03-18 12:00:00 17.5 11 Sudeste 45 Este 0 -- -- 55
2020-03-18 11:00:00 15.2 14 Este 39 Este 0 -- -- 63
2020-03-18 10:00:00 13.7 17 Este 39 Este 0 -- -- 68
2020-03-18 09:00:00 12.3 10 Este 45 Este 0 -- -- 75
2020-03-18 08:00:00 11.8 6 Este 28 Este 0 -- -- 76
2020-03-18 07:00:00 12.1 9 Este 34 Este 0 -- -- 74
2020-03-18 06:00:00 12.3 8 Este 28 Este 0 -- -- 74
2020-03-18 05:00:00 13 9 Sudeste 32 Este 0 -- -- 72
2020-03-18 04:00:00 13.6 10 Este 32 Sudeste 0 -- -- 70
2020-03-18 03:00:00 14.4 5 Este 27 Este 0 -- -- 67
2020-03-18 02:00:00 14.9 7 Este 31 Este 0 -- -- 66
2020-03-18 01:00:00 15.7 9 Este 35 Sudeste 0 -- -- 65
2020-03-18 00:00:00 15.7 7 Sudeste 28 Este 0 -- -- 63
2020-03-17 23:00:00 15.8 10 Este 34 Este 0 -- -- 64
2020-03-17 22:00:00 15.9 10 Este 34 Este 0 -- -- 62
2020-03-17 21:00:00 15.6 6 Este 22 Este 0 -- -- 63
2020-03-17 20:00:00 15.7 4 Este 20 Este 0 -- -- 61
2020-03-17 19:00:00 16.6 7 Este 28 Sudeste 0 -- -- 57
2020-03-17 18:00:00 17.5 8 Este 35 Sudeste 0 -- -- 53
2020-03-17 17:00:00 16.8 11 Este 33 Este 0 -- -- 51
2020-03-17 16:00:00 16.4 9 Sudeste 34 Este 0 -- -- 51
2020-03-17 15:00:00 15.7 11 Este 35 Este 0 -- -- 55
2020-03-17 14:00:00 15.1 8 Este 35 Sudeste 0 -- -- 59
2020-03-17 13:00:00 15.3 10 Sudeste 39 Sudeste 0 -- -- 57
2020-03-17 12:00:00 12.6 10 Este 35 Sudeste 0 -- -- 71
2020-03-17 11:00:00 10.4 9 Sudeste 21 Este 0 -- -- 76
2020-03-17 10:00:00 7.5 0 Calma 11 Sudeste 0 -- -- 83
2020-03-17 09:00:00 6 5 Sudeste 14 Sudeste 0 -- -- 83
2020-03-17 08:00:00 5.7 6 Este 19 Este 0 -- -- 82
2020-03-17 07:00:00 4.1 3 Este 12 Este 0 -- -- 90
2020-03-17 06:00:00 3.6 0 Calma 6 Este 0 -- -- 96
2020-03-17 05:00:00 3.5 0 Calma 8 Sur 0 -- -- 96
2020-03-17 04:00:00 3.5 2 Nordeste 10 Nordeste 0 -- -- 96
2020-03-17 03:00:00 4.1 0 Calma -- -- 0 -- -- 94
2020-03-17 02:00:00 4.4 0 Calma 5 Este 0 -- -- 94
2020-03-17 01:00:00 5.3 3 Este 9 Nordeste 0 -- -- 92
2020-03-17 00:00:00 5.2 0 Calma 12 Nordeste 0.1 -- -- 90
2020-03-16 23:00:00 6 0 Calma 10 Este 0.4 -- -- 94
2020-03-16 22:00:00 6.2 0 Calma 13 Nordeste 0 -- -- 89
2020-03-16 21:00:00 6.5 3 Nordeste 20 Nordeste 0 -- -- 83
2020-03-16 20:00:00 5.9 10 Nordeste 39 Nordeste 0 -- -- 87
2020-03-16 19:00:00 5.3 15 Norte 37 Norte 0.3 -- -- 90
2020-03-16 18:00:00 5.2 12 Norte 35 Norte 1.3 -- -- 95
2020-03-16 17:00:00 5.3 9 Norte 31 Norte 1.8 -- -- 92
2020-03-16 16:00:00 6.2 7 Norte 36 Norte 0.5 -- -- 90
2020-03-16 15:00:00 6.7 12 Norte 43 Norte 0.2 -- -- 87
2020-03-16 14:00:00 6.4 14 Norte 48 Noroeste 0.2 -- -- 88
2020-03-16 13:00:00 6.4 20 Norte 48 Norte 0.2 -- -- 84
2020-03-16 12:00:00 7.9 18 Nordeste 57 Norte 0 -- -- 76
2020-03-16 11:00:00 6.3 6 Norte 37 Noroeste 0.9 -- -- 85
2020-03-16 10:00:00 6 7 Norte 31 Norte 0.3 -- -- 84
2020-03-16 09:00:00 5.7 3 Noroeste 14 Oeste 0.1 -- -- 83
2020-03-16 08:00:00 5.1 4 Sudoeste 14 Sudoeste 0 -- -- 81
2020-03-16 07:00:00 5.1 5 Noroeste 22 Norte 0 -- -- 79
2020-03-16 06:00:00 5.3 6 Noroeste 18 Nordeste 0 -- -- 75
2020-03-16 05:00:00 5.6 3 Noroeste 23 Oeste 0 -- -- 70
2020-03-16 04:00:00 5.6 8 Noroeste 22 Noroeste 0 -- -- 68
2020-03-16 03:00:00 5.6 8 Noroeste 23 Noroeste 0 -- -- 67
2020-03-16 02:00:00 5.7 5 Noroeste 30 Norte 0 -- -- 67
2020-03-16 01:00:00 6.5 7 Noroeste 33 Nordeste 0 -- -- 66
2020-03-16 00:00:00 7.6 10 Norte 38 Nordeste 0 -- -- 64
2020-03-15 23:00:00 9.5 8 Norte 25 Noroeste 0 -- -- 64
2020-03-15 22:00:00 10.7 8 Noroeste 33 Oeste 0 -- -- 64
2020-03-15 21:00:00 12.3 14 Oeste 35 Oeste 0 -- -- 62
2020-03-15 20:00:00 13.6 15 Oeste 36 Oeste 0 -- -- 55
2020-03-15 19:00:00 16.1 16 Oeste 37 Oeste 0 -- -- 52
2020-03-15 18:00:00 18.2 19 Oeste 42 Oeste 0 -- -- 56
2020-03-15 17:00:00 19.6 16 Oeste 38 Oeste 0 -- -- 56
2020-03-15 16:00:00 20.3 15 Oeste 36 Oeste 0 -- -- 52
2020-03-15 15:00:00 21.2 15 Oeste 31 Oeste 0 -- -- 52
2020-03-15 14:00:00 20.4 8 Oeste 21 Oeste 0 -- -- 59
2020-03-15 13:00:00 20.5 3 Sur 15 Sur 0 -- -- 63
2020-03-15 12:00:00 18.5 5 Sudeste 18 Este 0 -- -- 65
2020-03-15 11:00:00 16.5 6 Este 15 Sudeste 0 -- -- 70
2020-03-15 10:00:00 14.4 5 Este 17 Este 0 -- -- 72
2020-03-15 09:00:00 12.4 6 Este 14 Este 0 -- -- 74
2020-03-15 08:00:00 10.6 5 Este 14 Este 0 -- -- 76
2020-03-15 07:00:00 10.6 3 Este 12 Este 0 -- -- 74
2020-03-15 06:00:00 11.2 5 Este 12 Este 0 -- -- 74
2020-03-15 05:00:00 12.5 5 Este 12 Este 0 -- -- 68
2020-03-15 04:00:00 12 5 Este 14 Este 0 -- -- 69
2020-03-15 03:00:00 12.4 4 Este 9 Este 0 -- -- 68
2020-03-15 02:00:00 12.7 2 Este 6 Este 0 -- -- 69
2020-03-15 01:00:00 13.1 0 Calma 4 Este 0 -- -- 68
2020-03-15 00:00:00 14 0 Calma 8 Este 0 -- -- 63
2020-03-14 23:00:00 16 5 Este 9 Este 0 -- -- 59
2020-03-14 22:00:00 17 0 Calma -- -- 0 -- -- 55
2020-03-14 21:00:00 18 0 Calma 2 Sur 0 -- -- 52
2020-03-14 20:00:00 20 0 Calma 8 Oeste 0 -- -- 45
2020-03-14 19:00:00 22.4 3 Oeste 10 Oeste 0 -- -- 42
2020-03-14 18:00:00 24.1 3 Sudoeste 11 Oeste 0 -- -- 39
2020-03-14 17:00:00 23.9 2 Oeste 12 Oeste 0 -- -- 41
2020-03-14 16:00:00 23.8 3 Oeste 13 Sudoeste 0 -- -- 42
2020-03-14 15:00:00 23.4 2 Oeste 13 Noroeste 0 -- -- 46
2020-03-14 14:00:00 22.3 4 Sudeste 12 Este 0 -- -- 47
2020-03-14 13:00:00 21.1 0 Calma 15 Sudeste 0 -- -- 51
2020-03-14 12:00:00 18.9 5 Sudeste 18 Sudeste 0 -- -- 61
2020-03-14 11:00:00 17.3 5 Sudeste 12 Sur 0 -- -- 69
2020-03-14 10:00:00 15 2 Este -- -- -- -- -- 73
2020-03-14 09:00:00 11.3 0 Calma 6 Sudeste 0 -- -- 80
2020-03-14 08:00:00 11 0 Calma 7 Sudeste 0 -- -- 76
2020-03-14 07:00:00 11.7 2 Sudeste 7 Sudoeste 0 -- -- 74
2020-03-14 06:00:00 12.2 0 Calma 8 Nordeste 0 -- -- 72
2020-03-14 05:00:00 13.3 0 Calma 15 Norte 0 -- -- 67
2020-03-14 04:00:00 14 5 Nordeste 14 Norte 0 -- -- 64
2020-03-14 03:00:00 15.1 5 Norte 23 Nordeste 0 -- -- 64
2020-03-14 02:00:00 15.6 7 Nordeste 32 Nordeste 0 -- -- 63
2020-03-14 01:00:00 15.6 13 Nordeste 37 Norte 0 -- -- 64
2020-03-14 00:00:00 15.7 9 Norte 28 Nordeste 0 -- -- 63
2020-03-13 23:00:00 16.2 6 Norte 29 Noroeste 0 -- -- 62
2020-03-13 22:00:00 17 8 Norte 28 Norte 0 -- -- 60
2020-03-13 21:00:00 17.7 12 Norte 33 Norte 0 -- -- 58
2020-03-13 20:00:00 18.1 10 Norte 32 Norte 0 -- -- 56
2020-03-13 19:00:00 19.2 10 Norte 25 Norte 0 -- -- 55
2020-03-13 18:00:00 21.3 6 Norte 24 Norte 0 -- -- 51
2020-03-13 17:00:00 22.6 8 Noroeste 22 Norte 0 -- -- 50
2020-03-13 16:00:00 22.3 5 Noroeste 15 Oeste 0 -- -- 55
2020-03-13 15:00:00 20.8 3 Oeste 15 Oeste 0 -- -- 58
2020-03-13 14:00:00 20.6 5 Oeste 18 Oeste 0 -- -- 58
2020-03-13 13:00:00 19.7 8 Oeste 17 Noroeste 0 -- -- 60
2020-03-13 12:00:00 18.4 5 Noroeste 15 Norte 0 -- -- 66
2020-03-13 11:00:00 16 3 Oeste 9 Noroeste 0 -- -- 74
2020-03-13 10:00:00 13.4 3 Sudeste 7 Sudeste 0 -- -- 84
2020-03-13 09:00:00 11.2 0 Calma 7 Oeste 0 -- -- 92
2020-03-13 08:00:00 10.7 0 Calma 4 Sudeste 0 -- -- 92
2020-03-13 07:00:00 10.4 0 Calma 5 Sur 0 -- -- 91
2020-03-13 06:00:00 11.4 0 Calma 6 Este 0 -- -- 87
2020-03-13 05:00:00 12 0 Calma 5 Nordeste 0 -- -- 87
2020-03-13 04:00:00 12.9 0 Calma 5 Nordeste 0 -- -- 84
2020-03-13 03:00:00 13.3 0 Calma 3 Oeste 0 -- -- 81
2020-03-13 02:00:00 14 0 Calma 5 Sudoeste 0 -- -- 76
2020-03-13 01:00:00 14.8 4 Oeste 9 Oeste 0 -- -- 75
2020-03-13 00:00:00 16.3 4 Sudeste 6 Sudeste 0 -- -- 71
2020-03-12 23:00:00 17.4 4 Este 7 Este 0 -- -- 66
2020-03-12 22:00:00 18.4 3 Este 5 Este 0 -- -- 62
2020-03-12 21:00:00 19.6 0 Calma 5 Oeste 0 -- -- 57
2020-03-12 20:00:00 20.4 2 Oeste 9 Oeste 0 -- -- 54
2020-03-12 19:00:00 22.3 3 Noroeste 9 Noroeste 0 -- -- 50
2020-03-12 18:00:00 24.1 4 Noroeste 13 Noroeste 0 -- -- 46
2020-03-12 17:00:00 25 5 Noroeste 14 Oeste 0 -- -- 46
2020-03-12 16:00:00 25.4 0 Calma 10 Oeste 0 -- -- 46
2020-03-12 15:00:00 24.4 3 Sur 13 Sur 0 -- -- 45
2020-03-12 14:00:00 23.8 5 Este 14 Sudeste 0 -- -- 46
2020-03-12 13:00:00 23.3 5 Sudeste 16 Este 0 -- -- 53
2020-03-12 12:00:00 20.7 5 Este 19 Este 0 -- -- 59
2020-03-12 11:00:00 18.4 7 Este 20 Sudeste 0 -- -- 63
2020-03-12 10:00:00 17.1 5 Este 26 Este 0 -- -- 65
2020-03-12 09:00:00 15.8 9 Este 27 Sudeste 0 -- -- 67
2020-03-12 08:00:00 15.6 8 Este 24 Este 0 -- -- 68
2020-03-12 07:00:00 15.6 10 Sudeste 22 Este 0 -- -- 68
2020-03-12 06:00:00 15.8 10 Este 24 Este 0 -- -- 68
2020-03-12 05:00:00 16.4 7 Este 18 Este 0 -- -- 64
2020-03-12 04:00:00 16.4 4 Este 11 Este 0 -- -- 58
2020-03-12 03:00:00 15.8 5 Este 11 Este 0 -- -- 55
2020-03-12 02:00:00 16.5 5 Este 14 Este 0 -- -- 54
2020-03-12 01:00:00 16.9 6 Este 12 Este 0 -- -- 55
2020-03-12 00:00:00 17.5 3 Este 12 Este 0 -- -- 54
2020-03-11 23:00:00 18 4 Este 14 Nordeste 0 -- -- 55
2020-03-11 22:00:00 18.3 5 Este 13 Nordeste 0 -- -- 59
2020-03-11 21:00:00 19.8 4 Este 9 Este 0 -- -- 62
2020-03-11 20:00:00 20.7 0 Calma 5 Sudeste 0 -- -- 59
2020-03-11 19:00:00 22.3 0 Calma -- -- 0 -- -- 55
2020-03-11 18:00:00 23.8 0 Calma 6 Noroeste 0 -- -- 49
2020-03-11 17:00:00 24.6 3 Noroeste 9 Noroeste 0 -- -- 47
2020-03-11 16:00:00 26 3 Oeste 10 Oeste 0 -- -- 42
2020-03-11 15:00:00 25 5 Oeste 10 Oeste 0 -- -- 48
2020-03-11 14:00:00 23.6 0 Calma 10 Este 0 -- -- 50
2020-03-11 13:00:00 22.4 3 Este 14 Este 0 -- -- 54
2020-03-11 12:00:00 19.6 6 Este 18 Este 0 -- -- 59
2020-03-11 11:00:00 17.2 6 Sudeste 20 Este 0 -- -- 67
2020-03-11 10:00:00 15.6 5 Este 13 Este 0 -- -- 72
2020-03-11 09:00:00 12.2 4 Este 9 Este 0 -- -- 80
2020-03-11 08:00:00 11.2 4 Este 10 Este 0 -- -- 81
2020-03-11 07:00:00 11.1 5 Este 12 Este 0 -- -- 83
2020-03-11 06:00:00 10.6 6 Este 9 Este 0 -- -- 84
2020-03-11 05:00:00 11.2 3 Este 6 Este 0 -- -- 81
2020-03-11 04:00:00 11.5 0 Calma 7 Este 0 -- -- 79
2020-03-11 03:00:00 12.2 0 Calma 8 Este 0 -- -- 76
2020-03-11 02:00:00 12.4 0 Calma 5 Sudeste 0 -- -- 75
2020-03-11 01:00:00 13.7 0 Calma 7 Este 0 -- -- 69
2020-03-11 00:00:00 15.2 4 Este 6 Este 0 -- -- 67
2020-03-10 23:00:00 15.8 0 Calma 5 Este 0 -- -- 63
2020-03-10 22:00:00 17 5 Este 7 Sudeste 0 -- -- 56
2020-03-10 21:00:00 18.2 0 Calma 6 Noroeste 0 -- -- 51
2020-03-10 20:00:00 19.6 3 Noroeste 10 Noroeste 0 -- -- 48
2020-03-10 19:00:00 22 4 Noroeste 11 Oeste 0 -- -- 42
2020-03-10 18:00:00 23.8 4 Noroeste 15 Oeste 0 -- -- 40
2020-03-10 17:00:00 23.8 5 Noroeste 12 Oeste 0 -- -- 40
2020-03-10 16:00:00 23.5 4 Noroeste 14 Oeste 0 -- -- 42
2020-03-10 15:00:00 21.7 4 Oeste 17 Noroeste 0 -- -- 45
2020-03-10 14:00:00 21.1 4 Noroeste 15 Oeste 0 -- -- 47
2020-03-10 13:00:00 19.8 3 Noroeste 10 Noroeste 0 -- -- 51
2020-03-10 12:00:00 17.7 5 Sudoeste 11 Sudoeste 0 -- -- 52
2020-03-10 11:00:00 15.7 6 Oeste 11 Sudoeste 0 -- -- 59
2020-03-10 10:00:00 11.8 5 Oeste 9 Sudoeste 0 -- -- 70
2020-03-10 09:00:00 9.8 2 Oeste 11 Este 0 -- -- 72
2020-03-10 08:00:00 9.6 5 Este 10 Este 0 -- -- 71
2020-03-10 07:00:00 9.1 3 Este 9 Este 0 -- -- 72
2020-03-10 06:00:00 9.6 3 Este 9 Sudeste 0 -- -- 69
2020-03-10 05:00:00 9.6 0 Calma 6 Oeste 0 -- -- 69
2020-03-10 04:00:00 10.5 0 Calma 9 Este 0 -- -- 62
2020-03-10 03:00:00 11.7 3 Este 8 Sur 0 -- -- 54
2020-03-10 02:00:00 13.2 3 Nordeste 17 Nordeste 0 -- -- 47
2020-03-10 01:00:00 15.1 5 Norte 24 Norte 0 -- -- 42
2020-03-10 00:00:00 15.6 7 Este 36 Nordeste 0 -- -- 42
2020-03-09 23:00:00 15.7 15 Norte 35 Norte 0 -- -- 42
2020-03-09 22:00:00 15.7 9 Norte 31 Norte 0 -- -- 42
2020-03-09 21:00:00 16.2 11 Norte 33 Norte 0 -- -- 40
2020-03-09 20:00:00 17 6 Norte 29 Norte 0 -- -- 35
2020-03-09 19:00:00 18.1 5 Norte 19 Norte 0 -- -- 33
2020-03-09 18:00:00 19.9 7 Norte 23 Norte 0 -- -- 31
2020-03-09 17:00:00 19.9 8 Norte 27 Noroeste 0 -- -- 32
2020-03-09 16:00:00 20.2 10 Norte 30 Nordeste 0 -- -- 31
2020-03-09 15:00:00 19.8 10 Noroeste 26 Noroeste 0 -- -- 36
2020-03-09 14:00:00 18.6 5 Noroeste 24 Noroeste 0 -- -- 42
2020-03-09 13:00:00 16.5 9 Norte 33 Noroeste 0 -- -- 45
2020-03-09 12:00:00 15.5 11 Norte 31 Noroeste 0 -- -- 50
2020-03-09 11:00:00 12.7 10 Norte 34 Norte 0 -- -- 57
2020-03-09 10:00:00 10.5 8 Norte 36 Norte 0 -- -- 65
2020-03-09 09:00:00 9.2 11 Norte 37 Norte 0 -- -- 71
2020-03-09 08:00:00 9.1 12 Noroeste 40 Norte 0 -- -- 72
2020-03-09 07:00:00 9.9 12 Norte 35 Norte 0 -- -- 70
2020-03-09 06:00:00 10.3 9 Norte 34 Norte 0 -- -- 70
2020-03-09 05:00:00 9.6 6 Noroeste 29 Noroeste 0 -- -- 76
2020-03-09 04:00:00 8.3 4 Noroeste 13 Noroeste 0 -- -- 83
2020-03-09 03:00:00 9.1 4 Noroeste 26 Norte 0 -- -- 81
2020-03-09 02:00:00 10.3 4 Noroeste 26 Norte 0 -- -- 75
2020-03-09 01:00:00 11.6 7 Norte 19 Norte 0 -- -- 72
2020-03-09 00:00:00 12 5 Norte 14 Norte 0 -- -- 73
2020-03-08 23:00:00 12.4 4 Norte 22 Norte 0 -- -- 72
2020-03-08 22:00:00 11.8 3 Noroeste 13 Noroeste 0 -- -- 72
2020-03-08 21:00:00 13.1 5 Norte 19 Nordeste 0 -- -- 68
2020-03-08 20:00:00 13.6 5 Noroeste 17 Noroeste 0 -- -- 65
2020-03-08 19:00:00 14.3 6 Noroeste 16 Oeste 0 -- -- 65
2020-03-08 18:00:00 15.8 8 Oeste 23 Oeste 0 -- -- 63
2020-03-08 17:00:00 14.5 8 Oeste 21 Oeste 0 -- -- 63
2020-03-08 16:00:00 14 9 Noroeste 22 Oeste 0 -- -- 61
2020-03-08 15:00:00 15 9 Oeste 23 Noroeste 0 -- -- 55
2020-03-08 14:00:00 15.4 8 Oeste 19 Oeste 0 -- -- 61
2020-03-08 13:00:00 14.6 8 Oeste 19 Noroeste 0 -- -- 63
2020-03-08 12:00:00 13 6 Noroeste 16 Oeste 0 -- -- 72
2020-03-08 11:00:00 10.9 6 Oeste 14 Oeste 0 -- -- 75
2020-03-08 10:00:00 7.3 2 Este 5 Este 0 -- -- 83
2020-03-08 09:00:00 5.2 0 Calma 4 Sudoeste 0 -- -- 87
2020-03-08 08:00:00 5.4 0 Calma 11 Este 0 -- -- 81
2020-03-08 07:00:00 5.7 4 Este 10 Este 0 -- -- 84
2020-03-08 06:00:00 5.3 0 Calma 9 Este 0 -- -- 84
2020-03-08 05:00:00 6.5 4 Este 12 Este 0 -- -- 79
2020-03-08 04:00:00 6.4 5 Este 11 Este 0 -- -- 84
2020-03-08 03:00:00 7.4 0 Calma 9 Este 0 -- -- 83
2020-03-08 02:00:00 8.4 4 Este 7 Este 0 -- -- 80
2020-03-08 01:00:00 9.2 3 Este 6 Este 0 -- -- 75
2020-03-08 00:00:00 10.2 0 Calma 5 Sur 0 -- -- 67
2020-03-07 23:00:00 11.3 0 Calma 10 Oeste 0 -- -- 62
2020-03-07 22:00:00 12 3 Noroeste 12 Noroeste 0 -- -- 59
2020-03-07 21:00:00 13.2 5 Noroeste 12 Noroeste 0 -- -- 55
2020-03-07 20:00:00 14 4 Oeste 12 Oeste 0 -- -- 51
2020-03-07 19:00:00 16.7 6 Oeste 18 Oeste 0 -- -- 46
2020-03-07 18:00:00 18.5 6 Oeste 16 Oeste 0 -- -- 42
2020-03-07 17:00:00 18.6 5 Oeste 15 Oeste 0 -- -- 42
2020-03-07 16:00:00 18.2 6 Sudoeste 18 Oeste 0 -- -- 43
2020-03-07 15:00:00 17.6 3 Sudoeste 14 Oeste 0 -- -- 45
2020-03-07 14:00:00 16.2 4 Sudoeste 16 Oeste 0 -- -- 47
2020-03-07 13:00:00 15.7 3 Oeste 12 Oeste 0 -- -- 49
2020-03-07 12:00:00 13.6 5 Oeste 15 Nordeste 0 -- -- 52
2020-03-07 11:00:00 12.3 6 Nordeste 16 Nordeste 0 -- -- 54
2020-03-07 10:00:00 10.9 3 Nordeste 16 Nordeste 0 -- -- 56
2020-03-07 09:00:00 8.7 3 Nordeste 21 Nordeste 0 -- -- 59
2020-03-07 08:00:00 8 2 Sudoeste 32 Nordeste 0 -- -- 58
2020-03-07 07:00:00 8.2 12 Norte 37 Norte 0 -- -- 58
2020-03-07 06:00:00 8.2 13 Norte 27 Nordeste 0 -- -- 56
2020-03-07 05:00:00 7.8 11 Norte 27 Nordeste 0 -- -- 55
2020-03-07 04:00:00 8.3 10 Norte 36 Nordeste 0 -- -- 54
2020-03-07 03:00:00 8.5 13 Norte 31 Norte 0 -- -- 52
2020-03-07 02:00:00 8.4 9 Norte 28 Norte 0 -- -- 52
2020-03-07 01:00:00 9 10 Nordeste 28 Nordeste 0 -- -- 50
2020-03-07 00:00:00 9.3 8 Nordeste 24 Nordeste 0 -- -- 51
2020-03-06 23:00:00 9.5 5 Nordeste 19 Norte 0 -- -- 50
2020-03-06 22:00:00 9.8 7 Nordeste 17 Este 0 -- -- 48
2020-03-06 21:00:00 10.1 7 Nordeste 24 Nordeste 0 -- -- 47
2020-03-06 20:00:00 11.4 11 Nordeste 27 Norte 0 -- -- 41
2020-03-06 19:00:00 12.8 6 Norte 31 Noroeste 0 -- -- 38
2020-03-06 18:00:00 15.1 8 Norte 32 Noroeste 0 -- -- 37
2020-03-06 17:00:00 15.6 9 Norte 36 Noroeste 0 -- -- 35
2020-03-06 16:00:00 15.7 8 Norte 33 Noroeste 0 -- -- 40
2020-03-06 15:00:00 14.7 13 Noroeste 38 Norte 0 -- -- 41
2020-03-06 14:00:00 13.7 15 Noroeste 37 Noroeste 0 -- -- 42
2020-03-06 13:00:00 13.2 13 Noroeste 45 Norte 0 -- -- 46
2020-03-06 12:00:00 11.5 8 Noroeste 32 Noroeste 0 -- -- 53
2020-03-06 11:00:00 10.4 10 Noroeste 35 Norte 0 -- -- 58
2020-03-06 10:00:00 9.8 11 Noroeste 30 Noroeste 0 -- -- 62
2020-03-06 09:00:00 7.2 6 Noroeste 24 Noroeste 0 -- -- 75
2020-03-06 08:00:00 7.3 9 Oeste 26 Oeste 0 -- -- 85
2020-03-06 07:00:00 7.5 10 Oeste 24 Oeste 0 -- -- 95
2020-03-06 06:00:00 7.2 8 Oeste 20 Noroeste 0.1 -- -- 95
2020-03-06 05:00:00 6.7 5 Oeste 19 Oeste 0.3 -- -- 91
2020-03-06 04:00:00 7.4 6 Oeste 19 Oeste 0 -- -- 84
2020-03-06 03:00:00 7.6 5 Oeste 18 Oeste 0 -- -- 82
2020-03-06 02:00:00 7.2 4 Oeste 14 Oeste 0 -- -- 79
2020-03-06 01:00:00 7.4 5 Oeste 14 Oeste 0 -- -- 72
2020-03-06 00:00:00 8.5 5 Oeste 26 Noroeste 0 -- -- 66
2020-03-05 23:00:00 9.1 6 Oeste 26 Noroeste 0 -- -- 63
2020-03-05 22:00:00 10.3 11 Noroeste 39 Oeste 0 -- -- 58
2020-03-05 21:00:00 11.2 11 Noroeste 40 Noroeste 0 -- -- 53
2020-03-05 20:00:00 12.3 18 Noroeste 39 Noroeste 0 -- -- 51
2020-03-05 19:00:00 13.6 16 Oeste 37 Oeste 0 -- -- 48
2020-03-05 18:00:00 15.5 16 Oeste 43 Noroeste 0 -- -- 46
2020-03-05 17:00:00 16.1 14 Oeste 46 Sudoeste 0 -- -- 43
2020-03-05 16:00:00 17.1 17 Oeste 49 Noroeste 0 -- -- 47
2020-03-05 15:00:00 16.6 15 Oeste 36 Noroeste 0 -- -- 47
2020-03-05 14:00:00 16.2 12 Oeste 31 Oeste 0 -- -- 49
2020-03-05 13:00:00 15.5 15 Oeste 30 Oeste 0 -- -- 60
2020-03-05 12:00:00 13.5 14 Oeste 31 Oeste 0 -- -- 68
2020-03-05 11:00:00 12.1 12 Oeste 42 Sudoeste 0 -- -- 86
2020-03-05 10:00:00 11.8 17 Oeste 36 Sudoeste 0.5 -- -- 96
2020-03-05 09:00:00 11.8 17 Sudoeste 36 Sudoeste 0 -- -- 91
2020-03-05 08:00:00 12.3 11 Sudoeste 31 Oeste 0 -- -- 87
2020-03-05 07:00:00 12.5 14 Oeste 31 Oeste 0 -- -- 86
2020-03-05 06:00:00 12.8 9 Oeste 30 Sudoeste 0 -- -- 89
2020-03-05 05:00:00 12.8 10 Oeste 27 Oeste 0 -- -- 91
2020-03-05 04:00:00 12.8 6 Oeste 22 Oeste 0 -- -- 91
2020-03-05 03:00:00 13.2 8 Oeste 20 Oeste 0 -- -- 91
2020-03-05 02:00:00 13.3 9 Oeste 18 Oeste 0 -- -- 91
2020-03-05 01:00:00 13.4 9 Oeste 19 Oeste 0 -- -- 90
2020-03-05 00:00:00 13.5 6 Oeste 16 Sudoeste 0 -- -- 88
2020-03-04 23:00:00 13.4 3 Oeste 9 Oeste 0 -- -- 85
2020-03-04 22:00:00 13.6 3 Oeste 11 Oeste 0 -- -- 82
2020-03-04 21:00:00 13.8 4 Noroeste 11 Noroeste 0 -- -- 76
2020-03-04 20:00:00 14.6 5 Oeste 13 Oeste 0 -- -- 72
2020-03-04 19:00:00 15.8 2 Noroeste 15 Noroeste 0 -- -- 66
2020-03-04 18:00:00 16.1 5 Noroeste 19 Noroeste 0 -- -- 66
2020-03-04 17:00:00 16.3 6 Noroeste 19 Oeste 0 -- -- 66
2020-03-04 16:00:00 16.8 5 Noroeste 23 Oeste 0 -- -- 66
2020-03-04 15:00:00 16.1 6 Oeste 23 Oeste 0 -- -- 68
2020-03-04 14:00:00 16.5 8 Oeste 21 Oeste 0 -- -- 68
2020-03-04 13:00:00 15.9 6 Oeste 18 Oeste 0 -- -- 69
2020-03-04 12:00:00 15.8 9 Oeste 20 Oeste 0 -- -- 76
2020-03-04 11:00:00 13.4 8 Oeste 17 Oeste 0 -- -- 89
2020-03-04 10:00:00 12.3 5 Noroeste 16 Oeste 0 -- -- 95
2020-03-04 09:00:00 11.7 6 Noroeste 20 Oeste 0 -- -- 96
2020-03-04 08:00:00 11.6 5 Oeste 16 Sudoeste 0 -- -- 95
2020-03-04 07:00:00 11.8 5 Oeste 19 Noroeste 0 -- -- 95
2020-03-04 06:00:00 12 6 Oeste 22 Oeste 0 -- -- 95
2020-03-04 05:00:00 12.1 9 Oeste 28 Oeste 0 -- -- 95
2020-03-04 04:00:00 12.2 8 Oeste 19 Sudoeste 0 -- -- 96
2020-03-04 03:00:00 12.5 5 Oeste 20 Oeste 0 -- -- 96
2020-03-04 02:00:00 12.3 6 Oeste 17 Oeste 0 -- -- 95
2020-03-04 01:00:00 12.4 6 Oeste 18 Oeste 0 -- -- 94
2020-03-04 00:00:00 12.6 7 Oeste 19 Oeste 0 -- -- 94
2020-03-03 23:00:00 12.5 5 Oeste 15 Oeste 0 -- -- 94
2020-03-03 22:00:00 12.3 5 Oeste 12 Oeste 0 -- -- 92
2020-03-03 21:00:00 12.2 3 Oeste 6 Oeste 0 -- -- 94
2020-03-03 20:00:00 12.2 0 Calma -- -- 0 -- -- 94
2020-03-03 19:00:00 12.2 0 Calma -- -- 0 -- -- 94
2020-03-03 18:00:00 12.3 0 Calma 5 Sudeste 0 -- -- 93
2020-03-03 17:00:00 12.1 0 Calma -- -- 0 -- -- 94
2020-03-03 16:00:00 11.7 0 Calma -- -- 0 -- -- 94
2020-03-03 15:00:00 11.3 0 Calma 11 Noroeste 0 -- -- 95
2020-03-03 14:00:00 10.6 0 Calma 7 Noroeste 0.1 -- -- 95
2020-03-03 13:00:00 10.2 0 Calma 10 Noroeste 0.1 -- -- 95
2020-03-03 12:00:00 10 3 Noroeste 10 Oeste 0.2 -- -- 95
2020-03-03 11:00:00 9.5 5 Oeste 17 Oeste 0 -- -- 94
2020-03-03 10:00:00 9.4 6 Oeste 17 Oeste 0 -- -- 91
2020-03-03 09:00:00 8.3 6 Oeste 17 Oeste 0 -- -- 92
2020-03-03 08:00:00 7.7 5 Oeste 14 Noroeste 0 -- -- 92
2020-03-03 07:00:00 7.4 4 Oeste 14 Oeste 0 -- -- 91
2020-03-03 06:00:00 7.2 5 Oeste 15 Noroeste 0 -- -- 89
2020-03-03 05:00:00 6.9 5 Oeste 12 Oeste 0 -- -- 86
2020-03-03 04:00:00 5.8 0 Calma 5 Oeste 0 -- -- 81
2020-03-03 03:00:00 5.9 0 Calma 10 Noroeste 0 -- -- 75
2020-03-03 02:00:00 6.3 4 Noroeste 9 Noroeste 0 -- -- 70
2020-03-03 01:00:00 6.6 4 Noroeste 13 Noroeste 0 -- -- 66
2020-03-03 00:00:00 7.5 5 Norte 14 Noroeste 0 -- -- 61
2020-03-02 23:00:00 8.1 5 Oeste 26 Norte 0 -- -- 57
2020-03-02 22:00:00 9.1 6 Noroeste 24 Oeste 0 -- -- 53
2020-03-02 21:00:00 9.5 6 Noroeste 19 Noroeste 0 -- -- 54
2020-03-02 20:00:00 10.6 4 Oeste 25 Noroeste 0 -- -- 48
2020-03-02 19:00:00 11.7 6 Noroeste 28 Noroeste 0 -- -- 45
2020-03-02 18:00:00 12.5 12 Noroeste 36 Noroeste 0 -- -- 42
2020-03-02 17:00:00 12.6 10 Noroeste 38 Noroeste 0 -- -- 42
2020-03-02 16:00:00 13.5 11 Noroeste 50 Noroeste 0 -- -- 42
2020-03-02 15:00:00 14.4 19 Noroeste 45 Noroeste 0 -- -- 42
2020-03-02 14:00:00 13.1 20 Noroeste 61 Noroeste 0 -- -- 50
2020-03-02 13:00:00 13.2 19 Noroeste 42 Noroeste 0 -- -- 54
2020-03-02 12:00:00 13 14 Noroeste 38 Oeste 0 -- -- 60
2020-03-02 11:00:00 11.6 14 Oeste 34 Oeste 0 -- -- 62
2020-03-02 10:00:00 10.9 11 Oeste 33 Noroeste 0 -- -- 74
2020-03-02 09:00:00 10.3 13 Oeste 32 Oeste 0 -- -- 69
2020-03-02 08:00:00 10.5 12 Oeste 36 Oeste 0 -- -- 73
2020-03-02 07:00:00 12.1 15 Oeste 48 Oeste 0 -- -- 87
2020-03-02 06:00:00 12.6 18 Oeste 55 Oeste 0.2 -- -- 94
2020-03-02 05:00:00 12.5 23 Oeste 52 Sudoeste 0 -- -- 94
2020-03-02 04:00:00 12.3 24 Oeste 54 Oeste 0.6 -- -- 92
2020-03-02 03:00:00 12.6 28 Oeste 51 Oeste 0.1 -- -- 91
2020-03-02 02:00:00 12.3 26 Oeste 52 Sudoeste 1.2 -- -- 91
2020-03-02 01:00:00 12.8 23 Oeste 51 Sudoeste 0 -- -- 87
2020-03-02 00:00:00 13.1 24 Oeste 57 Sudoeste 0.4 -- -- 91
2020-03-01 23:00:00 12.4 14 Oeste 35 Sudoeste 2.9 -- -- 94
2020-03-01 22:00:00 13.4 12 Sudoeste 32 Sudoeste 0.2 -- -- 89
2020-03-01 21:00:00 13.7 14 Sudoeste 28 Sudoeste 0 -- -- 86
2020-03-01 20:00:00 14.1 14 Sudoeste 34 Sudoeste 0.4 -- -- 82
2020-03-01 19:00:00 15.7 18 Oeste 41 Oeste 0 -- -- 75
2020-03-01 18:00:00 16.3 22 Oeste 45 Oeste 0 -- -- 74
2020-03-01 17:00:00 16.4 20 Oeste 46 Oeste 0 -- -- 69
2020-03-01 16:00:00 16.8 21 Oeste 47 Oeste 0 -- -- 69
2020-03-01 15:00:00 16.6 19 Oeste 35 Oeste 0 -- -- 76
2020-03-01 14:00:00 15.8 16 Oeste 35 Sudoeste 0 -- -- 81
2020-03-01 13:00:00 14 16 Oeste 33 Oeste 0.3 -- -- 92
2020-03-01 12:00:00 11.5 0 Calma 9 Noroeste 0.9 -- -- 96
2020-03-01 11:00:00 10.8 0 Calma 9 Sudoeste 0.4 -- -- 96
2020-03-01 10:00:00 10.4 4 Sudoeste 19 Sudoeste 1.1 -- -- 95
2020-03-01 09:00:00 10.2 8 Sudoeste 19 Oeste 0.5 -- -- 92
2020-03-01 08:00:00 10.3 6 Sudoeste 31 Oeste 0 -- -- 91
2020-03-01 07:00:00 10.1 15 Oeste 36 Oeste 0 -- -- 92
2020-03-01 06:00:00 10.3 10 Oeste 22 Oeste 0 -- -- 90
2020-03-01 05:00:00 10 13 Oeste 27 Oeste 0 -- -- 92
2020-03-01 04:00:00 9.7 3 Oeste 15 Noroeste 0 -- -- 89
2020-03-01 03:00:00 9.9 4 Noroeste 15 Noroeste 0 -- -- 86
2020-03-01 02:00:00 10.2 3 Noroeste 19 Oeste 0 -- -- 76
2020-03-01 01:00:00 10.4 7 Oeste 19 Oeste 0 -- -- 75
2020-03-01 00:00:00 10.1 5 Oeste 12 Oeste 0 -- -- 75
2020-02-29 23:00:00 10.2 4 Oeste 14 Noroeste 0 -- -- 73
2020-02-29 22:00:00 10.4 7 Oeste 20 Oeste 0 -- -- 71
2020-02-29 21:00:00 10.8 5 Oeste 18 Oeste 0 -- -- 66
2020-02-29 20:00:00 11.9 7 Oeste 22 Oeste 0 -- -- 63
2020-02-29 19:00:00 13.2 9 Oeste 28 Oeste 0 -- -- 61
2020-02-29 18:00:00 14.1 10 Oeste 25 Oeste 0 -- -- 60
2020-02-29 17:00:00 15.5 11 Oeste 35 Noroeste 0.1 -- -- 57
2020-02-29 16:00:00 15.8 19 Oeste 42 Oeste 0 -- -- 55
2020-02-29 15:00:00 16.1 15 Oeste 36 Oeste 0 -- -- 68
2020-02-29 14:00:00 15.9 13 Oeste 38 Oeste 0 -- -- 79
2020-02-29 13:00:00 13.6 12 Sudoeste 28 Sudoeste 0 -- -- 90
2020-02-29 12:00:00 10.9 0 Calma 14 Este 0 -- -- 96
2020-02-29 11:00:00 10 6 Este 17 Este 1.4 -- -- 96
2020-02-29 10:00:00 9.7 4 Nordeste 18 Este 0 -- -- 94
2020-02-29 09:00:00 10 2 Sur 14 Sur 0 -- -- 94
2020-02-29 08:00:00 9.4 3 Sur 12 Sur 0.4 -- -- 96
2020-02-29 07:00:00 9.1 2 Sudoeste 7 Oeste 0.1 -- -- 95
2020-02-29 06:00:00 9 4 Oeste 18 Sudoeste 0 -- -- 92
2020-02-29 05:00:00 8.7 5 Oeste 33 Oeste 0 -- -- 90
2020-02-29 04:00:00 9.2 10 Oeste 23 Oeste 0 -- -- 80
2020-02-29 03:00:00 10.7 4 Sudoeste 20 Oeste 0 -- -- 69
2020-02-29 02:00:00 11.1 3 Sudoeste 9 Sudoeste 0 -- -- 68
2020-02-29 01:00:00 11.7 3 Sudoeste 12 Oeste 0 -- -- 63
2020-02-29 00:00:00 13.1 3 Sudoeste 10 Sur 0 -- -- 59